createdAt,value
2022-09-15T00:01:22.279Z,18.35
2022-09-15T00:03:51.493Z,18.37
2022-09-15T00:06:21.070Z,18.33
2022-09-15T00:08:49.925Z,18.32
2022-09-15T00:11:20.907Z,18.26
2022-09-15T00:13:49.486Z,18.12
2022-09-15T00:16:19.396Z,18.17
2022-09-15T00:18:48.459Z,18.10
2022-09-15T00:21:21.356Z,18.15
2022-09-15T00:23:50.879Z,18.04
2022-09-15T00:26:22.408Z,18.06
2022-09-15T00:28:50.785Z,18.04
2022-09-15T00:31:22.642Z,18.17
2022-09-15T00:33:55.031Z,18.06
2022-09-15T00:36:26.850Z,18.13
2022-09-15T00:38:55.283Z,18.15
2022-09-15T00:41:25.072Z,17.94
2022-09-15T00:43:57.493Z,18.13
2022-09-15T00:46:30.320Z,18.07
2022-09-15T00:49:08.075Z,17.87
2022-09-15T00:51:46.148Z,17.97
2022-09-15T00:54:19.825Z,17.63
2022-09-15T00:56:51.971Z,17.84
2022-09-15T00:59:26.738Z,17.67
2022-09-15T01:02:04.391Z,17.82
2022-09-15T01:04:32.548Z,17.65
2022-09-15T01:07:08.335Z,17.68
2022-09-15T01:09:43.089Z,17.79
2022-09-15T01:12:10.863Z,17.67
2022-09-15T01:14:38.819Z,17.53
2022-09-15T01:17:22.302Z,17.61
2022-09-15T01:20:33.548Z,17.60
2022-09-15T01:23:31.541Z,17.55
2022-09-15T01:26:40.162Z,17.67
2022-09-15T01:29:45.244Z,17.64
2022-09-15T01:32:40.048Z,17.42
2022-09-15T01:35:23.176Z,17.46
2022-09-15T01:37:59.309Z,17.30
2022-09-15T01:40:36.184Z,17.39
2022-09-15T01:43:06.367Z,17.51
2022-09-15T01:45:39.550Z,17.51
2022-09-15T01:48:10.623Z,17.31
2022-09-15T01:50:45.887Z,17.38
2022-09-15T01:53:18.739Z,17.51
2022-09-15T01:55:54.809Z,17.49
2022-09-15T01:58:23.309Z,17.47
2022-09-15T02:01:00.242Z,17.50
2022-09-15T02:03:35.920Z,17.48
2022-09-15T02:06:13.212Z,17.49
2022-09-15T02:08:52.355Z,17.35
2022-09-15T02:11:25.762Z,17.10
2022-09-15T02:14:03.605Z,17.34
2022-09-15T02:16:36.787Z,17.58
2022-09-15T02:19:14.645Z,17.49
2022-09-15T02:21:54.933Z,17.63
2022-09-15T02:24:32.509Z,17.36
2022-09-15T02:27:03.421Z,17.35
2022-09-15T02:29:36.213Z,17.25
2022-09-15T02:32:08.566Z,16.95
2022-09-15T02:34:42.925Z,17.33
2022-09-15T02:37:12.532Z,17.06
2022-09-15T02:39:46.407Z,17.14
2022-09-15T02:42:24.478Z,17.27
2022-09-15T02:44:52.921Z,17.34
2022-09-15T02:47:22.821Z,17.32
2022-09-15T02:49:50.714Z,17.22
2022-09-15T02:52:18.748Z,17.07
2022-09-15T02:54:46.579Z,17.00
2022-09-15T02:57:14.856Z,16.87
2022-09-15T03:00:00.424Z,17.05
2022-09-15T03:02:29.803Z,16.80
2022-09-15T03:04:57.692Z,17.00
2022-09-15T03:07:25.828Z,16.71
2022-09-15T03:09:53.798Z,16.86
2022-09-15T03:12:21.827Z,16.81
2022-09-15T03:14:50.404Z,16.85
2022-09-15T03:17:18.730Z,16.84
2022-09-15T03:19:47.837Z,16.85
2022-09-15T03:22:15.609Z,16.61
2022-09-15T03:24:43.356Z,16.76
2022-09-15T03:27:11.139Z,16.71
2022-09-15T03:29:38.866Z,16.84
2022-09-15T03:32:06.763Z,16.76
2022-09-15T03:34:34.557Z,16.52
2022-09-15T03:37:03.896Z,16.71
2022-09-15T03:39:31.635Z,16.68
2022-09-15T03:41:59.398Z,16.57
2022-09-15T03:44:27.476Z,16.48
2022-09-15T03:46:55.237Z,16.69
2022-09-15T03:49:23.262Z,16.58
2022-09-15T03:51:51.152Z,16.61
2022-09-15T03:54:20.545Z,16.68
2022-09-15T03:56:49.095Z,16.70
2022-09-15T03:59:18.894Z,16.75
2022-09-15T04:01:47.677Z,16.72
2022-09-15T04:04:16.334Z,16.58
2022-09-15T04:06:44.858Z,16.43
2022-09-15T04:09:12.778Z,16.48
2022-09-15T04:11:42.686Z,16.38
2022-09-15T04:14:10.626Z,16.58
2022-09-15T04:16:38.581Z,16.57
2022-09-15T04:19:06.385Z,16.48
2022-09-15T04:21:34.172Z,16.52
2022-09-15T04:24:04.638Z,16.44
2022-09-15T04:26:35.977Z,16.61
2022-09-15T04:29:07.078Z,16.70
2022-09-15T04:31:35.457Z,16.60
2022-09-15T04:34:03.617Z,16.54
2022-09-15T04:36:31.692Z,16.40
2022-09-15T04:39:00.073Z,16.50
2022-09-15T04:41:28.369Z,16.54
2022-09-15T04:43:56.416Z,16.52
2022-09-15T04:46:25.581Z,16.48
2022-09-15T04:48:53.914Z,16.56
2022-09-15T04:51:23.853Z,16.55
2022-09-15T04:53:52.790Z,16.42
2022-09-15T04:56:23.829Z,16.46
2022-09-15T04:58:56.475Z,16.50
2022-09-15T05:01:32.958Z,16.74
2022-09-15T05:04:03.813Z,16.28
2022-09-15T05:06:32.856Z,15.81
2022-09-15T05:09:00.656Z,16.06
2022-09-15T05:11:30.916Z,16.39
2022-09-15T05:13:58.727Z,16.54
2022-09-15T05:16:31.202Z,16.42
2022-09-15T05:19:02.103Z,16.60
2022-09-15T05:21:30.223Z,16.58
2022-09-15T05:23:58.039Z,16.76
2022-09-15T05:26:28.256Z,16.85
2022-09-15T05:28:56.712Z,16.20
2022-09-15T05:31:27.569Z,16.13
2022-09-15T05:33:56.833Z,16.59
2022-09-15T05:36:25.997Z,16.88
2022-09-15T05:38:56.422Z,16.90
2022-09-15T05:41:25.825Z,17.20
2022-09-15T05:43:56.839Z,17.32
2022-09-15T05:46:26.500Z,17.02
2022-09-15T05:48:57.509Z,17.08
2022-09-15T05:51:26.034Z,17.52
2022-09-15T05:53:53.965Z,17.29
2022-09-15T05:56:21.903Z,17.38
2022-09-15T05:58:51.347Z,17.27
2022-09-15T06:01:22.262Z,17.19
2022-09-15T06:03:50.713Z,17.05
2022-09-15T06:06:21.795Z,17.03
2022-09-15T06:08:56.985Z,17.16
2022-09-15T06:11:29.204Z,17.38
2022-09-15T06:14:00.155Z,17.69
2022-09-15T06:16:28.445Z,17.17
2022-09-15T06:18:56.324Z,17.39
2022-09-15T06:21:28.331Z,17.53
2022-09-15T06:23:58.815Z,17.99
2022-09-15T06:26:28.725Z,18.27
2022-09-15T06:28:59.602Z,18.34
2022-09-15T06:31:29.818Z,18.01
2022-09-15T06:33:59.036Z,17.66
2022-09-15T06:36:30.570Z,17.59
2022-09-15T06:38:59.507Z,17.20
2022-09-15T06:41:35.314Z,17.49
2022-09-15T06:44:10.914Z,17.14
2022-09-15T06:46:39.163Z,17.04
2022-09-15T06:49:07.104Z,17.61
2022-09-15T06:51:36.219Z,17.75
2022-09-15T06:54:05.453Z,17.59
2022-09-15T06:56:37.915Z,17.03
2022-09-15T06:59:06.785Z,17.61
2022-09-15T07:01:35.151Z,17.23
2022-09-15T07:04:08.378Z,17.40
2022-09-15T07:06:40.579Z,18.54
2022-09-15T07:09:08.681Z,18.93
2022-09-15T07:11:36.472Z,19.35
2022-09-15T07:14:04.913Z,19.36
2022-09-15T07:16:32.987Z,19.31
2022-09-15T07:19:03.401Z,19.32
2022-09-15T07:21:31.167Z,19.71
2022-09-15T07:24:03.878Z,19.78
2022-09-15T07:26:34.828Z,19.79
2022-09-15T07:29:05.566Z,19.60
2022-09-15T07:31:36.368Z,19.72
2022-09-15T07:34:05.090Z,19.83
2022-09-15T07:36:33.142Z,19.31
2022-09-15T07:39:04.430Z,19.79
2022-09-15T07:41:33.252Z,20.04
2022-09-15T07:44:01.905Z,20.15
2022-09-15T07:46:33.491Z,20.01
2022-09-15T07:49:03.219Z,19.80
2022-09-15T07:51:31.493Z,20.37
2022-09-15T07:53:59.685Z,19.12
2022-09-15T07:56:28.806Z,18.30
2022-09-15T07:58:57.748Z,18.56
2022-09-15T08:01:25.644Z,17.97
2022-09-15T08:03:54.370Z,18.29
2022-09-15T08:06:25.176Z,18.06
2022-09-15T08:08:59.075Z,17.75
2022-09-15T08:11:30.239Z,17.45
2022-09-15T08:14:02.312Z,17.92
2022-09-15T08:16:30.282Z,17.97
2022-09-15T08:18:58.133Z,17.73
2022-09-15T08:21:27.542Z,17.90
2022-09-15T08:23:57.962Z,18.89
2022-09-15T08:26:27.182Z,18.91
2022-09-15T08:28:56.859Z,19.10
2022-09-15T08:31:26.194Z,19.25
2022-09-15T08:33:56.532Z,18.64
2022-09-15T08:36:27.468Z,17.98
2022-09-15T08:38:55.435Z,18.62
2022-09-15T08:41:30.442Z,18.11
2022-09-15T08:44:08.419Z,18.70
2022-09-15T08:46:44.082Z,19.27
2022-09-15T08:49:35.783Z,18.79
2022-09-15T08:52:19.204Z,19.08
2022-09-15T08:54:47.247Z,18.84
2022-09-15T08:57:23.376Z,19.32
2022-09-15T08:59:54.421Z,19.36
2022-09-15T09:02:54.066Z,19.60
2022-09-15T09:05:45.591Z,19.81
2022-09-15T09:09:00.179Z,19.27
2022-09-15T09:11:53.797Z,19.24
2022-09-15T09:14:40.143Z,19.43
2022-09-15T09:17:31.871Z,19.78
2022-09-15T09:20:29.301Z,19.45
2022-09-15T09:23:02.107Z,19.45
2022-09-15T09:25:31.287Z,19.07
2022-09-15T09:28:02.738Z,19.83
2022-09-15T09:30:34.746Z,20.02
2022-09-15T09:33:30.420Z,19.96
2022-09-15T09:36:02.400Z,19.26
2022-09-15T09:38:35.674Z,19.66
2022-09-15T09:41:13.252Z,19.18
2022-09-15T09:43:45.010Z,18.33
2022-09-15T09:46:16.449Z,18.42
2022-09-15T09:48:53.434Z,18.58
2022-09-15T09:51:34.933Z,18.56
2022-09-15T09:54:12.774Z,19.16
2022-09-15T09:56:41.578Z,18.78
2022-09-15T09:59:34.646Z,19.01
2022-09-15T10:02:16.647Z,19.00
2022-09-15T10:04:48.273Z,20.11
2022-09-15T10:07:20.650Z,19.50
2022-09-15T10:09:56.055Z,18.64
2022-09-15T10:12:30.797Z,18.84
2022-09-15T10:15:03.085Z,18.77
2022-09-15T10:17:43.860Z,18.74
2022-09-15T10:20:32.448Z,19.09
2022-09-15T10:23:07.441Z,19.67
2022-09-15T10:25:58.470Z,19.01
2022-09-15T10:28:28.657Z,18.59
2022-09-15T10:31:06.457Z,19.30
2022-09-15T10:33:36.853Z,19.27
2022-09-15T10:36:13.896Z,19.78
2022-09-15T10:38:46.675Z,19.17
2022-09-15T10:41:26.999Z,20.13
2022-09-15T10:44:23.843Z,19.78
2022-09-15T10:47:10.048Z,20.08
2022-09-15T10:49:58.141Z,19.40
2022-09-15T10:52:42.800Z,19.55
2022-09-15T10:55:51.655Z,20.24
2022-09-15T10:58:49.295Z,19.55
2022-09-15T11:01:38.758Z,19.49
2022-09-15T11:04:45.337Z,19.44
2022-09-15T11:07:24.135Z,19.94
2022-09-15T11:10:07.115Z,19.62
2022-09-15T11:12:54.944Z,19.11
2022-09-15T11:15:39.111Z,19.06
2022-09-15T11:18:30.015Z,19.67
2022-09-15T11:21:18.313Z,19.69
2022-09-15T11:23:55.692Z,19.84
2022-09-15T11:26:33.785Z,20.09
2022-09-15T11:29:08.336Z,20.09
2022-09-15T11:31:41.431Z,20.41
2022-09-15T11:34:20.857Z,19.91
2022-09-15T11:36:56.137Z,20.44
2022-09-15T11:39:28.946Z,19.12
2022-09-15T11:42:08.553Z,18.71
2022-09-15T11:44:41.399Z,19.16
2022-09-15T11:47:25.491Z,19.87
2022-09-15T11:50:01.205Z,19.09
2022-09-15T11:52:50.685Z,18.95
2022-09-15T11:55:28.307Z,19.30
2022-09-15T11:58:07.973Z,18.88
2022-09-15T12:00:43.596Z,19.21
2022-09-15T12:03:23.608Z,19.93
2022-09-15T12:05:58.716Z,20.26
2022-09-15T12:08:34.540Z,19.39
2022-09-15T12:11:08.729Z,20.33
2022-09-15T12:13:40.819Z,20.22
2022-09-15T12:16:10.280Z,19.55
2022-09-15T12:18:47.302Z,18.46
2022-09-15T12:21:24.249Z,18.52
2022-09-15T12:24:01.081Z,19.27
2022-09-15T12:26:29.987Z,19.14
2022-09-15T12:29:02.714Z,18.86
2022-09-15T12:31:35.840Z,18.53
2022-09-15T12:34:07.480Z,19.30
2022-09-15T12:36:43.043Z,19.65
2022-09-15T12:39:29.948Z,19.36
2022-09-15T12:42:18.585Z,19.84
2022-09-15T12:44:53.435Z,19.78
2022-09-15T12:47:31.859Z,19.37
2022-09-15T12:50:09.657Z,19.47
2022-09-15T12:52:46.707Z,20.02
2022-09-15T12:55:22.517Z,19.55
2022-09-15T12:57:57.520Z,18.84
2022-09-15T13:00:37.964Z,19.15
2022-09-15T13:03:28.291Z,19.39
2022-09-15T13:06:21.881Z,20.11
2022-09-15T13:08:56.584Z,20.67
2022-09-15T13:11:37.862Z,19.91
2022-09-15T13:14:28.960Z,19.88
2022-09-15T13:17:06.635Z,20.25
2022-09-15T13:19:46.484Z,19.71
2022-09-15T13:22:25.208Z,19.39
2022-09-15T13:25:01.918Z,19.19
2022-09-15T13:27:37.548Z,19.99
2022-09-15T13:30:28.220Z,20.13
2022-09-15T13:33:12.102Z,20.32
2022-09-15T13:36:04.894Z,20.71
2022-09-15T13:39:00.307Z,20.16
2022-09-15T13:42:10.261Z,20.39
2022-09-15T13:45:29.090Z,19.89
2022-09-15T13:48:26.085Z,20.11
2022-09-15T13:50:59.944Z,20.72
2022-09-15T13:53:44.463Z,20.59
2022-09-15T13:56:20.237Z,20.29
2022-09-15T13:59:01.221Z,20.69
2022-09-15T14:01:38.768Z,19.49
2022-09-15T14:04:13.039Z,19.50
2022-09-15T14:06:45.266Z,20.24
2022-09-15T14:09:18.785Z,19.13
2022-09-15T14:11:51.533Z,19.11
2022-09-15T14:14:41.645Z,19.39
2022-09-15T14:17:22.397Z,19.59
2022-09-15T14:19:54.309Z,19.46
2022-09-15T14:22:28.664Z,19.69
2022-09-15T14:24:58.893Z,19.53
2022-09-15T14:27:30.437Z,18.90
2022-09-15T14:30:02.697Z,19.64
2022-09-15T14:32:36.887Z,19.41
2022-09-15T14:35:10.322Z,20.39
2022-09-15T14:37:38.469Z,20.20
2022-09-15T14:40:23.451Z,20.83
2022-09-15T14:42:51.386Z,20.67
2022-09-15T14:48:17.838Z,20.42
2022-09-15T14:50:58.482Z,20.22
2022-09-15T14:53:28.838Z,19.97
2022-09-15T14:56:08.043Z,20.07
2022-09-15T14:58:42.427Z,19.77
2022-09-15T15:01:17.881Z,19.80
2022-09-15T15:03:54.064Z,20.20
2022-09-15T15:06:31.871Z,20.21
2022-09-15T15:09:06.989Z,19.88
2022-09-15T15:11:39.822Z,19.65
2022-09-15T15:14:11.339Z,19.43
2022-09-15T15:16:51.305Z,19.48
2022-09-15T15:19:37.909Z,19.59
2022-09-15T15:22:21.001Z,19.98
2022-09-15T15:24:53.642Z,20.10
2022-09-15T15:27:27.146Z,20.00
2022-09-15T15:29:54.993Z,18.91
2022-09-15T15:32:26.479Z,18.18
2022-09-15T15:34:59.528Z,18.13
2022-09-15T15:37:31.283Z,17.87
2022-09-15T15:40:04.439Z,17.92
2022-09-15T15:42:32.714Z,18.15
2022-09-15T15:45:05.467Z,18.14
2022-09-15T15:47:37.810Z,18.66
2022-09-15T15:50:14.462Z,18.14
2022-09-15T15:52:44.953Z,18.74
2022-09-15T15:55:16.225Z,18.08
2022-09-15T15:57:45.164Z,18.54
2022-09-15T16:00:23.209Z,17.94
2022-09-15T16:02:52.125Z,18.33
2022-09-15T16:05:22.058Z,18.22
2022-09-15T16:07:56.075Z,18.22
2022-09-15T16:10:30.654Z,17.92
2022-09-15T16:12:58.425Z,18.23
2022-09-15T16:15:26.469Z,17.93
2022-09-15T16:17:54.301Z,17.91
2022-09-15T16:20:22.321Z,18.40
2022-09-15T16:22:51.591Z,18.57
2022-09-15T16:25:28.496Z,18.90
2022-09-15T16:27:56.342Z,19.17
2022-09-15T16:30:25.585Z,19.08
2022-09-15T16:32:53.368Z,19.28
2022-09-15T16:35:33.003Z,18.92
2022-09-15T16:38:02.275Z,19.15
2022-09-15T16:40:30.282Z,19.10
2022-09-15T16:42:58.100Z,18.71
2022-09-15T16:45:36.569Z,19.16
2022-09-15T16:48:07.811Z,19.18
2022-09-15T16:50:37.818Z,18.02
2022-09-15T16:53:14.244Z,18.19
2022-09-15T16:55:46.228Z,17.83
2022-09-15T16:58:16.507Z,18.25
2022-09-15T17:00:48.495Z,17.83
2022-09-15T17:03:18.732Z,17.95
2022-09-15T17:05:49.672Z,17.79
2022-09-15T17:08:21.702Z,17.49
2022-09-15T17:10:50.038Z,17.26
2022-09-15T17:13:23.959Z,17.28
2022-09-15T17:15:54.946Z,18.22
2022-09-15T17:18:23.484Z,18.43
2022-09-15T17:20:52.347Z,18.52
2022-09-15T17:23:24.899Z,18.39
2022-09-15T17:25:57.281Z,18.22
2022-09-15T17:28:27.627Z,18.35
2022-09-15T17:31:00.145Z,18.16
2022-09-15T17:33:29.997Z,18.69
2022-09-15T17:35:58.831Z,18.30
2022-09-15T17:38:28.290Z,18.70
2022-09-15T17:40:56.287Z,18.86
2022-09-15T17:43:27.953Z,18.80
2022-09-15T17:45:56.526Z,18.91
2022-09-15T17:48:25.624Z,18.75
2022-09-15T17:50:53.483Z,18.85
2022-09-15T17:53:26.471Z,17.93
2022-09-15T17:55:57.158Z,18.62
2022-09-15T17:58:26.743Z,18.69
2022-09-15T18:00:55.045Z,18.23
2022-09-15T18:03:27.954Z,18.17
2022-09-15T18:05:58.272Z,17.42
2022-09-15T18:08:27.132Z,17.99
2022-09-15T18:10:56.720Z,18.41
2022-09-15T18:13:27.686Z,18.64
2022-09-15T18:15:56.126Z,18.63
2022-09-15T18:18:27.224Z,18.19
2022-09-15T18:20:57.955Z,17.67
2022-09-15T18:23:29.482Z,18.18
2022-09-15T18:25:58.797Z,18.26
2022-09-15T18:28:26.809Z,18.09
2022-09-15T18:30:54.693Z,17.73
2022-09-15T18:33:25.155Z,18.06
2022-09-15T18:35:55.893Z,17.60
2022-09-15T18:38:25.328Z,17.59
2022-09-15T18:40:55.983Z,17.54
2022-09-15T18:43:28.385Z,17.50
2022-09-15T18:46:00.097Z,17.46
2022-09-15T18:48:28.560Z,17.80
2022-09-15T18:50:56.652Z,18.01
2022-09-15T18:53:25.026Z,17.40
2022-09-15T18:55:53.528Z,16.96
2022-09-15T18:58:22.415Z,17.56
2022-09-15T19:00:52.025Z,18.01
2022-09-15T19:03:19.952Z,17.97
2022-09-15T19:05:48.613Z,17.51
2022-09-15T19:08:16.925Z,17.53
2022-09-15T19:10:44.772Z,17.97
2022-09-15T19:13:14.143Z,17.61
2022-09-15T19:15:43.895Z,18.02
2022-09-15T19:18:13.445Z,17.91
2022-09-15T19:20:41.874Z,17.85
2022-09-15T19:23:10.651Z,18.19
2022-09-15T19:25:41.197Z,18.20
2022-09-15T19:28:09.174Z,17.98
2022-09-15T19:30:37.475Z,17.95
2022-09-15T19:33:05.815Z,18.25
2022-09-15T19:35:34.977Z,17.75
2022-09-15T19:38:03.068Z,17.65
2022-09-15T19:40:31.604Z,17.68
2022-09-15T19:42:59.446Z,18.08
2022-09-15T19:45:27.712Z,18.40
2022-09-15T19:47:55.738Z,18.06
2022-09-15T19:50:24.260Z,17.87
2022-09-15T19:52:55.254Z,18.22
2022-09-15T19:55:28.595Z,18.36
2022-09-15T19:57:56.467Z,16.93
2022-09-15T20:00:24.315Z,18.02
2022-09-15T20:02:52.154Z,17.81
2022-09-15T20:05:21.049Z,17.79
2022-09-15T20:07:48.987Z,17.71
2022-09-15T20:10:18.350Z,17.95
2022-09-15T20:12:46.407Z,17.24
2022-09-15T20:15:14.197Z,17.44
2022-09-15T20:17:42.391Z,17.33
2022-09-15T20:20:11.951Z,17.69
2022-09-15T20:22:39.805Z,18.15
2022-09-15T20:25:08.338Z,18.51
2022-09-15T20:27:38.166Z,18.33
2022-09-15T20:30:08.023Z,18.64
2022-09-15T20:32:35.941Z,18.92
2022-09-15T20:35:10.498Z,18.63
2022-09-15T20:37:38.504Z,18.60
2022-09-15T20:40:08.235Z,18.37
2022-09-15T20:42:38.047Z,18.36
2022-09-15T20:45:07.554Z,18.32
2022-09-15T20:47:35.816Z,18.44
2022-09-15T20:50:03.732Z,18.37
2022-09-15T20:52:37.457Z,18.16
2022-09-15T20:55:07.143Z,17.94
2022-09-15T20:57:35.007Z,18.12
2022-09-15T21:00:07.112Z,17.85
2022-09-15T21:02:35.049Z,18.22
2022-09-15T21:05:02.856Z,17.76
2022-09-15T21:07:31.606Z,17.27
2022-09-15T21:09:59.530Z,17.40
2022-09-15T21:12:27.455Z,16.94
2022-09-15T21:14:55.346Z,17.56
2022-09-15T21:17:24.491Z,17.37
2022-09-15T21:19:52.357Z,17.71
2022-09-15T21:22:20.152Z,17.98
2022-09-15T21:24:47.930Z,18.01
2022-09-15T21:27:28.791Z,17.76
2022-09-15T21:29:56.600Z,17.76
2022-09-15T21:32:25.734Z,17.71
2022-09-15T21:34:55.896Z,17.65
2022-09-15T21:37:23.777Z,17.72
2022-09-15T21:39:51.743Z,17.59
2022-09-15T21:42:19.555Z,17.67
2022-09-15T21:44:48.621Z,17.41
2022-09-15T21:47:16.582Z,17.36
2022-09-15T21:49:47.426Z,17.31
2022-09-15T21:52:15.258Z,17.57
2022-09-15T21:54:43.393Z,17.39
2022-09-15T21:57:11.223Z,17.31
2022-09-15T21:59:39.204Z,17.30
2022-09-15T22:02:07.227Z,17.37
2022-09-15T22:04:35.395Z,17.29
2022-09-15T22:07:06.082Z,17.41
2022-09-15T22:09:34.356Z,17.31
2022-09-15T22:12:02.711Z,17.04
2022-09-15T22:14:31.780Z,17.13
2022-09-15T22:16:59.593Z,16.68
2022-09-15T22:19:27.402Z,16.72
2022-09-15T22:21:55.241Z,16.74
2022-09-15T22:24:24.342Z,17.12
2022-09-15T22:26:52.142Z,17.21
2022-09-15T22:29:22.556Z,17.16
2022-09-15T22:31:50.446Z,16.91
2022-09-15T22:34:18.452Z,16.96
2022-09-15T22:36:46.241Z,17.02
2022-09-15T22:39:14.041Z,16.89
2022-09-15T22:41:43.136Z,16.96
2022-09-15T22:44:20.433Z,16.61
2022-09-15T22:46:49.626Z,16.54
2022-09-15T22:49:17.797Z,16.75
2022-09-15T22:51:46.061Z,16.78
2022-09-15T22:54:13.871Z,16.03
2022-09-15T22:56:42.978Z,16.32
2022-09-15T22:59:10.828Z,16.35
2022-09-15T23:01:38.689Z,16.53
2022-09-15T23:04:06.593Z,16.14
2022-09-15T23:06:35.449Z,16.35
2022-09-15T23:09:06.411Z,16.42
2022-09-15T23:11:35.526Z,16.70
2022-09-15T23:14:04.796Z,16.82
2022-09-15T23:16:33.394Z,17.09
2022-09-15T23:19:02.481Z,16.87
2022-09-15T23:21:30.267Z,16.84
2022-09-15T23:23:59.215Z,16.86
2022-09-15T23:26:28.130Z,16.25
2022-09-15T23:28:56.121Z,16.49
2022-09-15T23:31:25.307Z,16.82
2022-09-15T23:33:53.156Z,16.81
2022-09-15T23:36:21.150Z,16.83
2022-09-15T23:38:50.058Z,16.70
2022-09-15T23:41:18.929Z,16.57
2022-09-15T23:43:47.345Z,15.72
2022-09-15T23:46:16.037Z,15.84
2022-09-15T23:48:45.938Z,16.33
2022-09-15T23:51:13.824Z,16.08
2022-09-15T23:53:41.658Z,16.20
2022-09-15T23:56:09.650Z,16.32
2022-09-15T23:58:37.535Z,16.08
